sensor_id;sensor_type;location;lat;lon;timestamp;P1;durP1;ratioP1;P2;durP2;ratioP2
64915;SDS011;51427;-27.442;153.014;2023-05-28T00:01:24;4.63;;;2.00;;
64915;SDS011;51427;-27.442;153.014;2023-05-28T00:03:51;2.78;;;1.50;;
64915;SDS011;51427;-27.442;153.014;2023-05-28T00:06:19;2.28;;;1.75;;
64915;SDS011;51427;-27.442;153.014;2023-05-28T00:08:47;3.33;;;1.67;;
64915;SDS011;51427;-27.442;153.014;2023-05-28T00:11:14;2.70;;;1.75;;
64915;SDS011;51427;-27.442;153.014;2023-05-28T00:13:42;2.78;;;1.63;;
64915;SDS011;51427;-27.442;153.014;2023-05-28T00:16:10;2.17;;;1.95;;
64915;SDS011;51427;-27.442;153.014;2023-05-28T00:18:38;2.63;;;2.03;;
64915;SDS011;51427;-27.442;153.014;2023-05-28T00:21:07;1.90;;;1.70;;
64915;SDS011;51427;-27.442;153.014;2023-05-28T00:23:34;3.72;;;1.73;;
64915;SDS011;51427;-27.442;153.014;2023-05-28T00:26:02;3.28;;;1.80;;
64915;SDS011;51427;-27.442;153.014;2023-05-28T00:28:29;2.30;;;1.50;;
64915;SDS011;51427;-27.442;153.014;2023-05-28T00:30:57;2.70;;;1.70;;
64915;SDS011;51427;-27.442;153.014;2023-05-28T00:33:25;2.10;;;1.65;;
64915;SDS011;51427;-27.442;153.014;2023-05-28T00:35:52;2.55;;;1.20;;
64915;SDS011;51427;-27.442;153.014;2023-05-28T00:38:21;2.42;;;1.50;;
64915;SDS011;51427;-27.442;153.014;2023-05-28T00:40:49;2.15;;;1.33;;
64915;SDS011;51427;-27.442;153.014;2023-05-28T00:43:17;3.85;;;1.85;;
64915;SDS011;51427;-27.442;153.014;2023-05-28T00:45:45;2.50;;;1.40;;
64915;SDS011;51427;-27.442;153.014;2023-05-28T00:48:14;3.05;;;1.58;;
64915;SDS011;51427;-27.442;153.014;2023-05-28T00:50:42;2.80;;;1.65;;
64915;SDS011;51427;-27.442;153.014;2023-05-28T00:53:11;2.45;;;1.52;;
64915;SDS011;51427;-27.442;153.014;2023-05-28T00:55:40;3.10;;;1.30;;
64915;SDS011;51427;-27.442;153.014;2023-05-28T00:58:08;4.15;;;1.50;;
64915;SDS011;51427;-27.442;153.014;2023-05-28T01:00:36;2.00;;;1.50;;
64915;SDS011;51427;-27.442;153.014;2023-05-28T01:03:08;3.88;;;1.40;;
64915;SDS011;51427;-27.442;153.014;2023-05-28T01:05:36;3.35;;;1.60;;
64915;SDS011;51427;-27.442;153.014;2023-05-28T01:08:04;1.30;;;1.20;;
64915;SDS011;51427;-27.442;153.014;2023-05-28T01:10:33;1.30;;;1.20;;
64915;SDS011;51427;-27.442;153.014;2023-05-28T01:13:04;2.22;;;1.27;;
64915;SDS011;51427;-27.442;153.014;2023-05-28T01:15:33;1.13;;;1.02;;
64915;SDS011;51427;-27.442;153.014;2023-05-28T01:18:03;1.77;;;1.33;;
64915;SDS011;51427;-27.442;153.014;2023-05-28T01:20:32;2.20;;;1.40;;
64915;SDS011;51427;-27.442;153.014;2023-05-28T01:23:04;1.67;;;1.30;;
64915;SDS011;51427;-27.442;153.014;2023-05-28T01:25:35;1.67;;;1.30;;
64915;SDS011;51427;-27.442;153.014;2023-05-28T01:28:13;1.48;;;1.38;;
64915;SDS011;51427;-27.442;153.014;2023-05-28T01:30:40;2.55;;;1.33;;
64915;SDS011;51427;-27.442;153.014;2023-05-28T01:33:09;2.35;;;1.17;;
64915;SDS011;51427;-27.442;153.014;2023-05-28T01:35:39;2.13;;;1.35;;
64915;SDS011;51427;-27.442;153.014;2023-05-28T01:38:08;3.50;;;1.20;;
64915;SDS011;51427;-27.442;153.014;2023-05-28T01:40:39;1.92;;;1.20;;
64915;SDS011;51427;-27.442;153.014;2023-05-28T01:43:09;3.38;;;1.27;;
64915;SDS011;51427;-27.442;153.014;2023-05-28T01:45:38;2.13;;;1.00;;
64915;SDS011;51427;-27.442;153.014;2023-05-28T01:48:06;2.00;;;1.10;;
64915;SDS011;51427;-27.442;153.014;2023-05-28T01:50:35;1.13;;;1.02;;
64915;SDS011;51427;-27.442;153.014;2023-05-28T01:53:02;1.20;;;1.08;;
64915;SDS011;51427;-27.442;153.014;2023-05-28T01:55:31;1.20;;;1.10;;
64915;SDS011;51427;-27.442;153.014;2023-05-28T01:57:58;0.98;;;0.88;;
64915;SDS011;51427;-27.442;153.014;2023-05-28T02:00:26;1.73;;;1.10;;
64915;SDS011;51427;-27.442;153.014;2023-05-28T02:02:54;1.20;;;1.00;;
64915;SDS011;51427;-27.442;153.014;2023-05-28T02:05:21;2.55;;;1.75;;
64915;SDS011;51427;-27.442;153.014;2023-05-28T02:07:49;1.73;;;0.82;;
64915;SDS011;51427;-27.442;153.014;2023-05-28T02:10:17;1.25;;;0.95;;
64915;SDS011;51427;-27.442;153.014;2023-05-28T02:12:44;1.38;;;0.90;;
64915;SDS011;51427;-27.442;153.014;2023-05-28T02:15:12;1.45;;;0.57;;
64915;SDS011;51427;-27.442;153.014;2023-05-28T02:17:39;1.55;;;0.82;;
64915;SDS011;51427;-27.442;153.014;2023-05-28T02:20:09;1.30;;;0.70;;
64915;SDS011;51427;-27.442;153.014;2023-05-28T02:22:37;1.40;;;0.70;;
64915;SDS011;51427;-27.442;153.014;2023-05-28T02:25:05;2.08;;;1.00;;
64915;SDS011;51427;-27.442;153.014;2023-05-28T02:27:33;2.22;;;0.70;;
64915;SDS011;51427;-27.442;153.014;2023-05-28T02:30:01;1.08;;;0.80;;
64915;SDS011;51427;-27.442;153.014;2023-05-28T02:32:29;2.53;;;0.82;;
64915;SDS011;51427;-27.442;153.014;2023-05-28T02:34:57;1.17;;;0.90;;
64915;SDS011;51427;-27.442;153.014;2023-05-28T02:37:25;1.52;;;0.70;;
64915;SDS011;51427;-27.442;153.014;2023-05-28T02:39:52;1.33;;;0.88;;
64915;SDS011;51427;-27.442;153.014;2023-05-28T02:42:20;0.75;;;0.75;;
64915;SDS011;51427;-27.442;153.014;2023-05-28T02:44:48;2.55;;;0.88;;
64915;SDS011;51427;-27.442;153.014;2023-05-28T02:47:15;1.98;;;0.95;;
64915;SDS011;51427;-27.442;153.014;2023-05-28T02:49:43;1.88;;;1.02;;
64915;SDS011;51427;-27.442;153.014;2023-05-28T02:52:10;1.15;;;0.68;;
64915;SDS011;51427;-27.442;153.014;2023-05-28T02:54:38;1.95;;;0.80;;
64915;SDS011;51427;-27.442;153.014;2023-05-28T02:57:06;0.85;;;0.60;;
64915;SDS011;51427;-27.442;153.014;2023-05-28T02:59:33;1.23;;;0.80;;
64915;SDS011;51427;-27.442;153.014;2023-05-28T03:02:01;0.65;;;0.65;;
64915;SDS011;51427;-27.442;153.014;2023-05-28T03:04:28;1.83;;;1.10;;
64915;SDS011;51427;-27.442;153.014;2023-05-28T03:06:56;2.15;;;1.00;;
64915;SDS011;51427;-27.442;153.014;2023-05-28T03:09:23;1.73;;;1.35;;
64915;SDS011;51427;-27.442;153.014;2023-05-28T03:11:51;3.08;;;2.22;;
64915;SDS011;51427;-27.442;153.014;2023-05-28T03:14:19;2.08;;;1.88;;
64915;SDS011;51427;-27.442;153.014;2023-05-28T03:16:46;2.25;;;1.13;;
64915;SDS011;51427;-27.442;153.014;2023-05-28T03:19:14;2.80;;;1.52;;
64915;SDS011;51427;-27.442;153.014;2023-05-28T03:21:41;2.75;;;2.20;;
64915;SDS011;51427;-27.442;153.014;2023-05-28T03:24:09;6.40;;;3.95;;
64915;SDS011;51427;-27.442;153.014;2023-05-28T03:26:37;5.45;;;3.80;;
64915;SDS011;51427;-27.442;153.014;2023-05-28T03:29:05;3.15;;;2.60;;
64915;SDS011;51427;-27.442;153.014;2023-05-28T03:31:42;4.53;;;3.05;;
64915;SDS011;51427;-27.442;153.014;2023-05-28T03:34:11;4.05;;;2.92;;
64915;SDS011;51427;-27.442;153.014;2023-05-28T03:36:38;4.50;;;3.50;;
64915;SDS011;51427;-27.442;153.014;2023-05-28T03:39:07;6.15;;;4.30;;
64915;SDS011;51427;-27.442;153.014;2023-05-28T03:41:36;7.90;;;4.80;;
64915;SDS011;51427;-27.442;153.014;2023-05-28T03:44:04;6.18;;;4.40;;
64915;SDS011;51427;-27.442;153.014;2023-05-28T03:46:32;5.68;;;4.20;;
64915;SDS011;51427;-27.442;153.014;2023-05-28T03:48:59;6.00;;;4.30;;
64915;SDS011;51427;-27.442;153.014;2023-05-28T03:51:27;6.30;;;4.65;;
64915;SDS011;51427;-27.442;153.014;2023-05-28T03:53:54;6.57;;;5.38;;
64915;SDS011;51427;-27.442;153.014;2023-05-28T03:56:22;7.85;;;6.15;;
64915;SDS011;51427;-27.442;153.014;2023-05-28T03:58:50;8.63;;;6.35;;
64915;SDS011;51427;-27.442;153.014;2023-05-28T04:01:17;10.45;;;7.68;;
64915;SDS011;51427;-27.442;153.014;2023-05-28T04:03:45;11.45;;;9.18;;
64915;SDS011;51427;-27.442;153.014;2023-05-28T04:06:13;12.55;;;10.48;;
64915;SDS011;51427;-27.442;153.014;2023-05-28T04:08:40;15.38;;;12.85;;
64915;SDS011;51427;-27.442;153.014;2023-05-28T04:11:08;14.65;;;13.10;;
64915;SDS011;51427;-27.442;153.014;2023-05-28T04:13:35;23.08;;;19.13;;
64915;SDS011;51427;-27.442;153.014;2023-05-28T04:16:03;29.55;;;25.45;;
64915;SDS011;51427;-27.442;153.014;2023-05-28T04:18:32;30.00;;;25.02;;
64915;SDS011;51427;-27.442;153.014;2023-05-28T04:20:59;30.23;;;25.20;;
64915;SDS011;51427;-27.442;153.014;2023-05-28T04:23:27;32.35;;;25.70;;
64915;SDS011;51427;-27.442;153.014;2023-05-28T04:25:55;29.15;;;24.42;;
64915;SDS011;51427;-27.442;153.014;2023-05-28T04:28:23;30.67;;;25.73;;
64915;SDS011;51427;-27.442;153.014;2023-05-28T04:30:56;32.95;;;27.35;;
64915;SDS011;51427;-27.442;153.014;2023-05-28T04:33:27;31.27;;;26.80;;
64915;SDS011;51427;-27.442;153.014;2023-05-28T04:35:55;30.63;;;26.30;;
64915;SDS011;51427;-27.442;153.014;2023-05-28T04:38:27;36.78;;;30.58;;
64915;SDS011;51427;-27.442;153.014;2023-05-28T04:40:57;33.97;;;30.27;;
64915;SDS011;51427;-27.442;153.014;2023-05-28T04:43:26;40.35;;;33.28;;
64915;SDS011;51427;-27.442;153.014;2023-05-28T04:45:55;35.03;;;30.17;;
64915;SDS011;51427;-27.442;153.014;2023-05-28T04:48:27;123.72;;;73.55;;
64915;SDS011;51427;-27.442;153.014;2023-05-28T04:50:57;40.05;;;33.65;;
64915;SDS011;51427;-27.442;153.014;2023-05-28T04:53:25;38.00;;;30.90;;
64915;SDS011;51427;-27.442;153.014;2023-05-28T04:55:52;43.10;;;31.45;;
64915;SDS011;51427;-27.442;153.014;2023-05-28T04:58:21;68.65;;;46.88;;
64915;SDS011;51427;-27.442;153.014;2023-05-28T05:00:49;36.28;;;29.50;;
64915;SDS011;51427;-27.442;153.014;2023-05-28T05:03:18;31.63;;;26.27;;
64915;SDS011;51427;-27.442;153.014;2023-05-28T05:05:46;30.75;;;25.75;;
64915;SDS011;51427;-27.442;153.014;2023-05-28T05:08:13;29.23;;;23.60;;
64915;SDS011;51427;-27.442;153.014;2023-05-28T05:10:41;24.98;;;20.98;;
64915;SDS011;51427;-27.442;153.014;2023-05-28T05:13:08;26.15;;;21.85;;
64915;SDS011;51427;-27.442;153.014;2023-05-28T05:15:36;23.20;;;20.45;;
64915;SDS011;51427;-27.442;153.014;2023-05-28T05:18:04;19.75;;;15.52;;
64915;SDS011;51427;-27.442;153.014;2023-05-28T05:20:31;20.70;;;15.75;;
64915;SDS011;51427;-27.442;153.014;2023-05-28T05:22:59;19.85;;;15.55;;
64915;SDS011;51427;-27.442;153.014;2023-05-28T05:25:27;22.67;;;17.25;;
64915;SDS011;51427;-27.442;153.014;2023-05-28T05:27:54;23.27;;;19.30;;
64915;SDS011;51427;-27.442;153.014;2023-05-28T05:30:22;29.92;;;23.88;;
64915;SDS011;51427;-27.442;153.014;2023-05-28T05:32:49;28.63;;;22.95;;
64915;SDS011;51427;-27.442;153.014;2023-05-28T05:35:17;35.33;;;27.75;;
64915;SDS011;51427;-27.442;153.014;2023-05-28T05:37:45;42.25;;;32.42;;
64915;SDS011;51427;-27.442;153.014;2023-05-28T05:40:17;38.97;;;31.77;;
64915;SDS011;51427;-27.442;153.014;2023-05-28T05:42:45;39.67;;;32.70;;
64915;SDS011;51427;-27.442;153.014;2023-05-28T05:45:13;43.88;;;36.05;;
64915;SDS011;51427;-27.442;153.014;2023-05-28T05:47:40;48.15;;;39.55;;
64915;SDS011;51427;-27.442;153.014;2023-05-28T05:50:10;50.80;;;40.40;;
64915;SDS011;51427;-27.442;153.014;2023-05-28T05:52:38;47.03;;;39.70;;
64915;SDS011;51427;-27.442;153.014;2023-05-28T05:55:07;47.50;;;40.83;;
64915;SDS011;51427;-27.442;153.014;2023-05-28T05:57:35;49.17;;;39.08;;
64915;SDS011;51427;-27.442;153.014;2023-05-28T06:00:04;53.20;;;42.83;;
64915;SDS011;51427;-27.442;153.014;2023-05-28T06:02:34;52.63;;;42.28;;
64915;SDS011;51427;-27.442;153.014;2023-05-28T06:05:03;54.33;;;44.83;;
64915;SDS011;51427;-27.442;153.014;2023-05-28T06:07:32;54.15;;;44.97;;
64915;SDS011;51427;-27.442;153.014;2023-05-28T06:09:59;55.08;;;43.38;;
64915;SDS011;51427;-27.442;153.014;2023-05-28T06:12:27;54.38;;;43.90;;
64915;SDS011;51427;-27.442;153.014;2023-05-28T06:14:55;54.17;;;43.17;;
64915;SDS011;51427;-27.442;153.014;2023-05-28T06:17:22;52.25;;;42.45;;
64915;SDS011;51427;-27.442;153.014;2023-05-28T06:19:50;52.65;;;42.28;;
64915;SDS011;51427;-27.442;153.014;2023-05-28T06:22:18;50.65;;;41.20;;
64915;SDS011;51427;-27.442;153.014;2023-05-28T06:24:46;50.00;;;40.08;;
64915;SDS011;51427;-27.442;153.014;2023-05-28T06:27:15;52.40;;;41.63;;
64915;SDS011;51427;-27.442;153.014;2023-05-28T06:29:43;50.70;;;38.95;;
64915;SDS011;51427;-27.442;153.014;2023-05-28T06:32:11;46.47;;;38.45;;
64915;SDS011;51427;-27.442;153.014;2023-05-28T06:34:39;47.50;;;36.33;;
64915;SDS011;51427;-27.442;153.014;2023-05-28T06:37:07;44.53;;;35.60;;
64915;SDS011;51427;-27.442;153.014;2023-05-28T06:39:34;43.42;;;35.88;;
64915;SDS011;51427;-27.442;153.014;2023-05-28T06:42:02;43.08;;;34.03;;
64915;SDS011;51427;-27.442;153.014;2023-05-28T06:44:31;36.75;;;31.75;;
64915;SDS011;51427;-27.442;153.014;2023-05-28T06:46:59;41.08;;;33.65;;
64915;SDS011;51427;-27.442;153.014;2023-05-28T06:49:27;39.92;;;34.08;;
64915;SDS011;51427;-27.442;153.014;2023-05-28T06:51:55;43.55;;;35.03;;
64915;SDS011;51427;-27.442;153.014;2023-05-28T06:54:22;45.67;;;34.90;;
64915;SDS011;51427;-27.442;153.014;2023-05-28T06:56:50;50.83;;;40.63;;
64915;SDS011;51427;-27.442;153.014;2023-05-28T06:59:17;45.53;;;36.63;;
64915;SDS011;51427;-27.442;153.014;2023-05-28T07:01:45;44.72;;;37.65;;
64915;SDS011;51427;-27.442;153.014;2023-05-28T07:04:13;46.03;;;40.60;;
64915;SDS011;51427;-27.442;153.014;2023-05-28T07:06:40;46.28;;;38.53;;
64915;SDS011;51427;-27.442;153.014;2023-05-28T07:09:08;47.88;;;39.88;;
64915;SDS011;51427;-27.442;153.014;2023-05-28T07:11:36;45.95;;;37.67;;
64915;SDS011;51427;-27.442;153.014;2023-05-28T07:14:04;48.53;;;37.58;;
64915;SDS011;51427;-27.442;153.014;2023-05-28T07:16:31;45.97;;;36.28;;
64915;SDS011;51427;-27.442;153.014;2023-05-28T07:18:59;43.33;;;36.90;;
64915;SDS011;51427;-27.442;153.014;2023-05-28T07:21:27;53.53;;;41.50;;
64915;SDS011;51427;-27.442;153.014;2023-05-28T07:23:54;62.85;;;45.92;;
64915;SDS011;51427;-27.442;153.014;2023-05-28T07:26:22;64.25;;;46.20;;
64915;SDS011;51427;-27.442;153.014;2023-05-28T07:28:51;53.83;;;41.13;;
64915;SDS011;51427;-27.442;153.014;2023-05-28T07:31:18;50.22;;;40.58;;
64915;SDS011;51427;-27.442;153.014;2023-05-28T07:33:46;50.10;;;39.85;;
64915;SDS011;51427;-27.442;153.014;2023-05-28T07:36:13;49.85;;;40.45;;
64915;SDS011;51427;-27.442;153.014;2023-05-28T07:38:42;48.72;;;39.60;;
64915;SDS011;51427;-27.442;153.014;2023-05-28T07:41:09;49.13;;;38.95;;
64915;SDS011;51427;-27.442;153.014;2023-05-28T07:43:37;46.92;;;37.50;;
64915;SDS011;51427;-27.442;153.014;2023-05-28T07:46:05;48.75;;;39.05;;
64915;SDS011;51427;-27.442;153.014;2023-05-28T07:48:32;50.67;;;40.80;;
64915;SDS011;51427;-27.442;153.014;2023-05-28T07:51:00;62.53;;;48.42;;
64915;SDS011;51427;-27.442;153.014;2023-05-28T07:53:27;57.70;;;45.80;;
64915;SDS011;51427;-27.442;153.014;2023-05-28T07:55:55;59.45;;;44.75;;
64915;SDS011;51427;-27.442;153.014;2023-05-28T07:58:23;61.20;;;46.70;;
64915;SDS011;51427;-27.442;153.014;2023-05-28T08:00:51;52.38;;;44.33;;
64915;SDS011;51427;-27.442;153.014;2023-05-28T08:03:19;52.13;;;42.45;;
64915;SDS011;51427;-27.442;153.014;2023-05-28T08:05:48;57.58;;;44.63;;
64915;SDS011;51427;-27.442;153.014;2023-05-28T08:08:15;57.75;;;44.05;;
64915;SDS011;51427;-27.442;153.014;2023-05-28T08:10:43;51.83;;;41.90;;
64915;SDS011;51427;-27.442;153.014;2023-05-28T08:13:11;49.30;;;39.45;;
64915;SDS011;51427;-27.442;153.014;2023-05-28T08:15:38;52.17;;;41.70;;
64915;SDS011;51427;-27.442;153.014;2023-05-28T08:18:06;52.17;;;40.47;;
64915;SDS011;51427;-27.442;153.014;2023-05-28T08:20:34;53.05;;;42.83;;
64915;SDS011;51427;-27.442;153.014;2023-05-28T08:23:02;54.65;;;42.50;;
64915;SDS011;51427;-27.442;153.014;2023-05-28T08:25:29;52.42;;;43.15;;
64915;SDS011;51427;-27.442;153.014;2023-05-28T08:27:58;56.83;;;43.90;;
64915;SDS011;51427;-27.442;153.014;2023-05-28T08:30:26;55.83;;;42.83;;
64915;SDS011;51427;-27.442;153.014;2023-05-28T08:32:53;59.97;;;46.58;;
64915;SDS011;51427;-27.442;153.014;2023-05-28T08:35:21;58.05;;;44.13;;
64915;SDS011;51427;-27.442;153.014;2023-05-28T08:37:49;58.53;;;44.15;;
64915;SDS011;51427;-27.442;153.014;2023-05-28T08:40:17;57.55;;;43.63;;
64915;SDS011;51427;-27.442;153.014;2023-05-28T08:42:45;58.45;;;45.17;;
64915;SDS011;51427;-27.442;153.014;2023-05-28T08:45:13;60.13;;;45.65;;
64915;SDS011;51427;-27.442;153.014;2023-05-28T08:47:40;61.78;;;49.28;;
64915;SDS011;51427;-27.442;153.014;2023-05-28T08:50:09;66.43;;;51.53;;
64915;SDS011;51427;-27.442;153.014;2023-05-28T08:52:39;65.43;;;52.45;;
64915;SDS011;51427;-27.442;153.014;2023-05-28T08:55:08;77.32;;;57.72;;
64915;SDS011;51427;-27.442;153.014;2023-05-28T08:57:35;75.07;;;57.33;;
64915;SDS011;51427;-27.442;153.014;2023-05-28T09:00:04;72.72;;;57.63;;
64915;SDS011;51427;-27.442;153.014;2023-05-28T09:02:34;77.53;;;60.42;;
64915;SDS011;51427;-27.442;153.014;2023-05-28T09:05:02;80.65;;;61.85;;
64915;SDS011;51427;-27.442;153.014;2023-05-28T09:07:29;84.25;;;64.65;;
64915;SDS011;51427;-27.442;153.014;2023-05-28T09:09:58;81.97;;;65.28;;
64915;SDS011;51427;-27.442;153.014;2023-05-28T09:12:25;86.25;;;67.93;;
64915;SDS011;51427;-27.442;153.014;2023-05-28T09:14:53;91.00;;;69.25;;
64915;SDS011;51427;-27.442;153.014;2023-05-28T09:17:34;90.15;;;69.18;;
64915;SDS011;51427;-27.442;153.014;2023-05-28T09:20:12;90.95;;;70.82;;
64915;SDS011;51427;-27.442;153.014;2023-05-28T09:22:40;89.53;;;66.70;;
64915;SDS011;51427;-27.442;153.014;2023-05-28T09:25:09;96.40;;;74.22;;
64915;SDS011;51427;-27.442;153.014;2023-05-28T09:27:37;98.15;;;76.72;;
64915;SDS011;51427;-27.442;153.014;2023-05-28T09:30:08;103.68;;;77.63;;
64915;SDS011;51427;-27.442;153.014;2023-05-28T09:32:36;112.75;;;85.95;;
64915;SDS011;51427;-27.442;153.014;2023-05-28T09:35:05;117.18;;;91.03;;
64915;SDS011;51427;-27.442;153.014;2023-05-28T09:37:36;128.35;;;98.50;;
64915;SDS011;51427;-27.442;153.014;2023-05-28T09:40:06;125.40;;;101.43;;
64915;SDS011;51427;-27.442;153.014;2023-05-28T09:42:38;125.10;;;100.03;;
64915;SDS011;51427;-27.442;153.014;2023-05-28T09:45:10;137.77;;;109.35;;
64915;SDS011;51427;-27.442;153.014;2023-05-28T09:47:42;125.63;;;100.47;;
64915;SDS011;51427;-27.442;153.014;2023-05-28T09:50:10;123.68;;;94.55;;
64915;SDS011;51427;-27.442;153.014;2023-05-28T09:52:38;113.85;;;91.15;;
64915;SDS011;51427;-27.442;153.014;2023-05-28T09:55:09;116.72;;;93.40;;
64915;SDS011;51427;-27.442;153.014;2023-05-28T09:57:44;116.95;;;94.13;;
64915;SDS011;51427;-27.442;153.014;2023-05-28T10:00:24;120.05;;;93.53;;
64915;SDS011;51427;-27.442;153.014;2023-05-28T10:05:35;117.40;;;90.60;;
64915;SDS011;51427;-27.442;153.014;2023-05-28T10:08:07;115.30;;;90.20;;
64915;SDS011;51427;-27.442;153.014;2023-05-28T10:10:40;114.75;;;90.30;;
64915;SDS011;51427;-27.442;153.014;2023-05-28T10:13:08;121.00;;;93.30;;
64915;SDS011;51427;-27.442;153.014;2023-05-28T10:15:38;122.82;;;97.70;;
64915;SDS011;51427;-27.442;153.014;2023-05-28T10:18:06;124.20;;;101.40;;
64915;SDS011;51427;-27.442;153.014;2023-05-28T10:20:34;124.53;;;102.55;;
64915;SDS011;51427;-27.442;153.014;2023-05-28T10:23:02;140.57;;;111.57;;
64915;SDS011;51427;-27.442;153.014;2023-05-28T10:25:30;141.30;;;113.28;;
64915;SDS011;51427;-27.442;153.014;2023-05-28T10:28:02;148.50;;;117.47;;
64915;SDS011;51427;-27.442;153.014;2023-05-28T10:30:33;159.35;;;121.97;;
64915;SDS011;51427;-27.442;153.014;2023-05-28T10:33:16;158.60;;;128.65;;
64915;SDS011;51427;-27.442;153.014;2023-05-28T10:35:55;165.10;;;129.25;;
64915;SDS011;51427;-27.442;153.014;2023-05-28T10:38:26;162.88;;;128.15;;
64915;SDS011;51427;-27.442;153.014;2023-05-28T10:40:59;159.63;;;125.60;;
64915;SDS011;51427;-27.442;153.014;2023-05-28T10:43:40;164.15;;;127.32;;
64915;SDS011;51427;-27.442;153.014;2023-05-28T10:46:11;165.45;;;128.60;;
64915;SDS011;51427;-27.442;153.014;2023-05-28T10:59:59;151.02;;;117.40;;
64915;SDS011;51427;-27.442;153.014;2023-05-28T11:02:35;147.07;;;114.25;;
64915;SDS011;51427;-27.442;153.014;2023-05-28T11:05:03;140.93;;;108.45;;
64915;SDS011;51427;-27.442;153.014;2023-05-28T11:10:04;141.05;;;108.55;;
64915;SDS011;51427;-27.442;153.014;2023-05-28T11:12:37;130.70;;;100.53;;
64915;SDS011;51427;-27.442;153.014;2023-05-28T11:15:06;134.52;;;103.25;;
64915;SDS011;51427;-27.442;153.014;2023-05-28T11:17:38;125.05;;;100.57;;
64915;SDS011;51427;-27.442;153.014;2023-05-28T11:22:43;124.32;;;95.63;;
64915;SDS011;51427;-27.442;153.014;2023-05-28T11:25:11;117.38;;;89.93;;
64915;SDS011;51427;-27.442;153.014;2023-05-28T11:27:40;118.60;;;88.78;;
64915;SDS011;51427;-27.442;153.014;2023-05-28T11:30:12;120.28;;;89.10;;
64915;SDS011;51427;-27.442;153.014;2023-05-28T11:32:42;112.25;;;85.13;;
64915;SDS011;51427;-27.442;153.014;2023-05-28T11:35:11;109.30;;;81.95;;
64915;SDS011;51427;-27.442;153.014;2023-05-28T11:37:41;111.93;;;82.47;;
64915;SDS011;51427;-27.442;153.014;2023-05-28T11:40:10;108.68;;;83.25;;
64915;SDS011;51427;-27.442;153.014;2023-05-28T11:42:42;108.90;;;82.60;;
64915;SDS011;51427;-27.442;153.014;2023-05-28T11:45:11;107.50;;;82.75;;
64915;SDS011;51427;-27.442;153.014;2023-05-28T11:47:39;104.60;;;81.40;;
64915;SDS011;51427;-27.442;153.014;2023-05-28T11:52:40;102.85;;;76.95;;
64915;SDS011;51427;-27.442;153.014;2023-05-28T11:55:09;106.63;;;77.50;;
64915;SDS011;51427;-27.442;153.014;2023-05-28T11:57:37;104.70;;;78.43;;
64915;SDS011;51427;-27.442;153.014;2023-05-28T12:00:06;119.07;;;87.85;;
64915;SDS011;51427;-27.442;153.014;2023-05-28T12:02:45;119.25;;;90.07;;
64915;SDS011;51427;-27.442;153.014;2023-05-28T12:05:15;119.88;;;89.35;;
64915;SDS011;51427;-27.442;153.014;2023-05-28T12:07:44;117.07;;;88.78;;
64915;SDS011;51427;-27.442;153.014;2023-05-28T12:10:18;119.30;;;88.72;;
64915;SDS011;51427;-27.442;153.014;2023-05-28T12:12:56;125.07;;;92.93;;
64915;SDS011;51427;-27.442;153.014;2023-05-28T12:15:28;132.45;;;99.53;;
64915;SDS011;51427;-27.442;153.014;2023-05-28T12:17:57;131.27;;;99.75;;
64915;SDS011;51427;-27.442;153.014;2023-05-28T12:23:02;135.68;;;98.18;;
64915;SDS011;51427;-27.442;153.014;2023-05-28T12:28:10;139.13;;;102.03;;
64915;SDS011;51427;-27.442;153.014;2023-05-28T12:30:40;136.75;;;102.60;;
64915;SDS011;51427;-27.442;153.014;2023-05-28T12:33:11;132.52;;;99.35;;
64915;SDS011;51427;-27.442;153.014;2023-05-28T12:35:41;139.85;;;101.32;;
64915;SDS011;51427;-27.442;153.014;2023-05-28T12:38:08;137.70;;;101.82;;
64915;SDS011;51427;-27.442;153.014;2023-05-28T12:40:36;135.05;;;99.45;;
64915;SDS011;51427;-27.442;153.014;2023-05-28T12:47:56;133.07;;;97.10;;
64915;SDS011;51427;-27.442;153.014;2023-05-28T12:50:24;137.95;;;100.88;;
64915;SDS011;51427;-27.442;153.014;2023-05-28T12:52:51;128.07;;;90.82;;
64915;SDS011;51427;-27.442;153.014;2023-05-28T12:55:19;124.07;;;91.60;;
64915;SDS011;51427;-27.442;153.014;2023-05-28T12:57:47;119.38;;;90.95;;
64915;SDS011;51427;-27.442;153.014;2023-05-28T13:00:14;122.07;;;89.95;;
64915;SDS011;51427;-27.442;153.014;2023-05-28T13:02:42;122.15;;;87.95;;
64915;SDS011;51427;-27.442;153.014;2023-05-28T13:05:09;119.47;;;86.22;;
64915;SDS011;51427;-27.442;153.014;2023-05-28T13:07:36;119.45;;;92.00;;
64915;SDS011;51427;-27.442;153.014;2023-05-28T13:10:04;122.80;;;88.63;;
64915;SDS011;51427;-27.442;153.014;2023-05-28T13:12:33;116.30;;;84.78;;
64915;SDS011;51427;-27.442;153.014;2023-05-28T13:15:05;113.60;;;84.35;;
64915;SDS011;51427;-27.442;153.014;2023-05-28T13:17:33;113.55;;;81.90;;
64915;SDS011;51427;-27.442;153.014;2023-05-28T13:20:01;104.03;;;78.47;;
64915;SDS011;51427;-27.442;153.014;2023-05-28T13:22:38;103.18;;;74.63;;
64915;SDS011;51427;-27.442;153.014;2023-05-28T13:25:06;99.03;;;69.20;;
64915;SDS011;51427;-27.442;153.014;2023-05-28T13:27:34;89.57;;;65.05;;
64915;SDS011;51427;-27.442;153.014;2023-05-28T13:30:01;88.03;;;62.17;;
64915;SDS011;51427;-27.442;153.014;2023-05-28T13:32:29;74.35;;;52.25;;
64915;SDS011;51427;-27.442;153.014;2023-05-28T13:34:56;81.00;;;56.47;;
64915;SDS011;51427;-27.442;153.014;2023-05-28T13:37:23;67.72;;;49.92;;
64915;SDS011;51427;-27.442;153.014;2023-05-28T13:39:51;56.38;;;38.28;;
64915;SDS011;51427;-27.442;153.014;2023-05-28T13:42:19;68.10;;;48.42;;
64915;SDS011;51427;-27.442;153.014;2023-05-28T13:44:49;58.53;;;40.78;;
64915;SDS011;51427;-27.442;153.014;2023-05-28T13:47:16;46.50;;;33.90;;
64915;SDS011;51427;-27.442;153.014;2023-05-28T13:49:44;44.88;;;30.40;;
64915;SDS011;51427;-27.442;153.014;2023-05-28T13:52:11;51.30;;;34.38;;
64915;SDS011;51427;-27.442;153.014;2023-05-28T13:57:07;37.75;;;25.83;;
64915;SDS011;51427;-27.442;153.014;2023-05-28T13:59:34;25.08;;;15.65;;
64915;SDS011;51427;-27.442;153.014;2023-05-28T14:02:01;27.38;;;16.90;;
64915;SDS011;51427;-27.442;153.014;2023-05-28T14:04:29;53.63;;;32.30;;
64915;SDS011;51427;-27.442;153.014;2023-05-28T14:06:56;23.40;;;15.95;;
64915;SDS011;51427;-27.442;153.014;2023-05-28T14:11:50;26.05;;;15.60;;
64915;SDS011;51427;-27.442;153.014;2023-05-28T14:14:17;24.20;;;16.55;;
64915;SDS011;51427;-27.442;153.014;2023-05-28T14:19:11;25.35;;;15.98;;
64915;SDS011;51427;-27.442;153.014;2023-05-28T14:21:38;26.02;;;15.48;;
64915;SDS011;51427;-27.442;153.014;2023-05-28T14:24:07;26.13;;;16.60;;
64915;SDS011;51427;-27.442;153.014;2023-05-28T14:26:34;21.33;;;14.55;;
64915;SDS011;51427;-27.442;153.014;2023-05-28T14:31:28;20.90;;;15.07;;
64915;SDS011;51427;-27.442;153.014;2023-05-28T14:33:55;26.25;;;17.73;;
64915;SDS011;51427;-27.442;153.014;2023-05-28T14:38:49;27.65;;;18.25;;
64915;SDS011;51427;-27.442;153.014;2023-05-28T14:43:44;24.25;;;16.58;;